createdAt,value
2018-09-29T00:01:17.359Z,9.20
2018-09-29T00:03:46.021Z,9.10
2018-09-29T00:06:15.257Z,9.10
2018-09-29T00:08:44.088Z,9.10
2018-09-29T00:11:13.076Z,9.10
2018-09-29T00:13:42.617Z,9.00
2018-09-29T00:16:11.826Z,9.00
2018-09-29T00:18:40.932Z,9.00
2018-09-29T00:21:11.371Z,9.00
2018-09-29T00:23:40.474Z,9.00
2018-09-29T00:26:11.635Z,8.90
2018-09-29T00:28:40.390Z,8.90
2018-09-29T00:31:08.823Z,8.90
2018-09-29T00:33:40.316Z,8.90
2018-09-29T00:36:09.060Z,8.90
2018-09-29T00:38:37.958Z,8.80
2018-09-29T00:41:09.441Z,8.80
2018-09-29T00:43:40.458Z,8.80
2018-09-29T00:46:09.770Z,8.80
2018-09-29T00:48:39.541Z,8.80
2018-09-29T00:51:11.298Z,8.80
2018-09-29T00:53:40.275Z,8.80
2018-09-29T00:56:09.389Z,8.70
2018-09-29T00:58:39.175Z,8.70
2018-09-29T01:01:07.949Z,8.80
2018-09-29T01:03:36.920Z,8.70
2018-09-29T01:06:05.625Z,8.70
2018-09-29T01:08:34.138Z,8.60
2018-09-29T01:11:03.863Z,8.60
2018-09-29T01:13:32.676Z,8.60
2018-09-29T01:16:01.287Z,8.60
2018-09-29T01:18:30.645Z,8.60
2018-09-29T01:20:59.711Z,8.60
2018-09-29T01:23:29.587Z,8.60
2018-09-29T01:25:58.617Z,8.60
2018-09-29T01:28:29.638Z,8.50
2018-09-29T01:30:58.549Z,8.50
2018-09-29T01:33:27.496Z,8.50
2018-09-29T01:35:58.732Z,8.50
2018-09-29T01:38:27.719Z,8.40
2018-09-29T01:40:56.461Z,8.40
2018-09-29T01:43:25.293Z,8.40
2018-09-29T01:45:53.999Z,8.40
2018-09-29T01:48:22.871Z,8.40
2018-09-29T01:50:51.637Z,8.30
2018-09-29T01:53:20.311Z,8.30
2018-09-29T01:55:49.250Z,8.40
2018-09-29T01:58:17.887Z,8.40
2018-09-29T02:00:46.516Z,8.40
2018-09-29T02:03:15.155Z,8.30
2018-09-29T02:05:45.158Z,8.30
2018-09-29T02:08:14.009Z,8.30
2018-09-29T02:10:45.491Z,8.30
2018-09-29T02:13:14.571Z,8.20
2018-09-29T02:15:43.953Z,8.20
2018-09-29T02:18:12.957Z,8.20
2018-09-29T02:20:41.497Z,8.20
2018-09-29T02:23:10.633Z,8.20
2018-09-29T02:25:39.315Z,8.20
2018-09-29T02:28:08.008Z,8.20
2018-09-29T02:30:37.183Z,8.20
2018-09-29T02:33:05.787Z,8.20
2018-09-29T02:35:34.419Z,8.10
2018-09-29T02:38:03.218Z,8.10
2018-09-29T02:40:31.972Z,8.20
2018-09-29T02:43:00.745Z,8.10
2018-09-29T02:45:29.851Z,8.10
2018-09-29T02:47:58.627Z,8.10
2018-09-29T02:50:27.285Z,8.10
2018-09-29T02:52:55.780Z,8.10
2018-09-29T02:55:24.351Z,8.10
2018-09-29T02:57:52.910Z,8.10
2018-09-29T03:00:21.468Z,8.10
2018-09-29T03:02:50.398Z,8.10
2018-09-29T03:05:20.604Z,8.10
2018-09-29T03:07:49.371Z,8.10
2018-09-29T03:10:18.177Z,8.20
2018-09-29T03:12:46.817Z,8.20
2018-09-29T03:15:15.664Z,8.20
2018-09-29T03:17:44.984Z,8.30
2018-09-29T03:20:13.588Z,8.30
2018-09-29T03:22:42.124Z,8.30
2018-09-29T03:25:10.836Z,8.30
2018-09-29T03:27:39.539Z,8.40
2018-09-29T03:30:08.920Z,8.40
2018-09-29T03:32:38.454Z,8.40
2018-09-29T03:35:07.048Z,8.50
2018-09-29T03:37:35.775Z,8.50
2018-09-29T03:40:04.565Z,8.50
2018-09-29T03:42:33.195Z,8.50
2018-09-29T03:45:02.111Z,8.50
2018-09-29T03:47:31.043Z,8.50
2018-09-29T03:49:59.563Z,8.50
2018-09-29T03:52:28.343Z,8.50
2018-09-29T03:54:57.057Z,8.50
2018-09-29T03:57:26.031Z,8.60
2018-09-29T03:59:54.500Z,8.30
2018-09-29T04:02:23.901Z,8.70
2018-09-29T04:04:54.138Z,8.70
2018-09-29T04:07:22.952Z,8.70
2018-09-29T04:09:51.736Z,8.80
2018-09-29T04:12:21.319Z,8.80
2018-09-29T04:14:50.209Z,8.90
2018-09-29T04:17:19.043Z,8.90
2018-09-29T04:19:48.221Z,8.90
2018-09-29T04:22:16.828Z,8.90
2018-09-29T04:24:45.825Z,8.90
2018-09-29T04:27:14.920Z,8.90
2018-09-29T04:29:44.325Z,9.00
2018-09-29T04:32:13.777Z,9.00
2018-09-29T04:34:42.821Z,8.90
2018-09-29T04:37:12.167Z,9.00
2018-09-29T04:39:41.478Z,9.10
2018-09-29T04:42:13.333Z,9.20
2018-09-29T04:44:42.293Z,9.20
2018-09-29T04:47:10.956Z,9.30
2018-09-29T04:49:39.819Z,9.20
2018-09-29T04:52:10.779Z,9.20
2018-09-29T04:54:39.379Z,9.20
2018-09-29T04:57:09.127Z,9.20
2018-09-29T04:59:38.013Z,9.20
2018-09-29T05:02:06.856Z,9.20
2018-09-29T05:04:36.720Z,9.20
2018-09-29T05:07:05.507Z,9.30
2018-09-29T05:09:35.131Z,9.20
2018-09-29T05:12:04.262Z,9.20
2018-09-29T05:14:45.323Z,9.20
2018-09-29T05:17:16.742Z,9.20
2018-09-29T05:19:47.281Z,9.20
2018-09-29T05:22:19.863Z,9.20
2018-09-29T05:24:50.451Z,9.20
2018-09-29T05:27:19.774Z,9.20
2018-09-29T05:29:48.423Z,9.10
2018-09-29T05:32:18.356Z,9.10
2018-09-29T05:34:47.348Z,9.00
2018-09-29T05:37:16.035Z,9.00
2018-09-29T05:39:50.140Z,9.00
2018-09-29T05:42:22.948Z,8.90
2018-09-29T05:44:55.899Z,8.90
2018-09-29T05:47:24.966Z,8.90
2018-09-29T05:49:55.820Z,8.80
2018-09-29T05:55:02.434Z,8.80
2018-09-29T05:57:31.651Z,8.70
2018-09-29T06:00:00.602Z,8.80
2018-09-29T06:02:29.289Z,8.80
2018-09-29T06:04:58.210Z,8.80
2018-09-29T06:07:29.502Z,8.80
2018-09-29T06:09:58.295Z,8.90
2018-09-29T06:12:27.069Z,8.90
2018-09-29T06:14:55.814Z,8.90
2018-09-29T06:17:24.932Z,8.90
2018-09-29T06:19:54.458Z,8.90
2018-09-29T06:22:24.041Z,9.00
2018-09-29T06:27:35.457Z,9.10
2018-09-29T06:30:07.494Z,9.10
2018-09-29T06:35:21.058Z,9.20
2018-09-29T06:37:49.973Z,9.30
2018-09-29T06:42:59.599Z,9.50
2018-09-29T06:45:42.151Z,9.60
2018-09-29T06:48:11.435Z,9.60
2018-09-29T06:50:42.143Z,9.70
2018-09-29T06:53:12.692Z,9.70
2018-09-29T06:56:04.978Z,9.70
2018-09-29T06:58:35.280Z,9.80
2018-09-29T07:01:06.471Z,9.90
2018-09-29T07:03:42.597Z,9.90
2018-09-29T07:06:11.983Z,10.00
2018-09-29T07:08:41.629Z,10.10
2018-09-29T07:11:10.645Z,10.20
2018-09-29T07:13:47.860Z,10.30
2018-09-29T07:21:37.887Z,10.50
2018-09-29T07:24:09.217Z,10.50
2018-09-29T07:26:40.417Z,10.60
2018-09-29T07:29:11.205Z,10.70
2018-09-29T07:31:43.132Z,10.80
2018-09-29T07:34:13.491Z,10.90
2018-09-29T07:36:42.859Z,10.90
2018-09-29T07:39:16.022Z,11.00
2018-09-29T07:41:56.259Z,11.00
2018-09-29T07:44:26.946Z,11.00
2018-09-29T07:46:55.926Z,11.00
2018-09-29T07:49:26.809Z,9.90
2018-09-29T07:54:31.506Z,11.10
2018-09-29T07:57:01.378Z,11.20
2018-09-29T07:59:36.118Z,11.30
2018-09-29T08:02:08.231Z,11.50
2018-09-29T08:04:36.648Z,11.60
2018-09-29T08:07:05.631Z,11.70
2018-09-29T08:09:41.015Z,11.70
2018-09-29T08:14:52.673Z,11.70
2018-09-29T08:17:25.638Z,11.70
2018-09-29T08:20:00.536Z,11.60
2018-09-29T08:22:32.640Z,11.60
2018-09-29T08:25:03.548Z,11.60
2018-09-29T08:27:54.121Z,11.70
2018-09-29T08:33:10.350Z,11.70
2018-09-29T08:35:40.009Z,11.70
2018-09-29T08:38:09.178Z,11.80
2018-09-29T08:40:40.060Z,11.90
2018-09-29T08:43:11.714Z,11.90
2018-09-29T08:45:41.802Z,11.90
2018-09-29T08:48:13.484Z,12.00
2018-09-29T08:50:58.669Z,11.90
2018-09-29T08:53:30.009Z,11.90
2018-09-29T08:55:59.668Z,12.00
2018-09-29T08:58:29.863Z,12.10
2018-09-29T09:01:00.142Z,12.10
2018-09-29T09:03:55.191Z,12.20
2018-09-29T09:09:22.006Z,12.30
2018-09-29T09:11:56.911Z,12.30
2018-09-29T09:17:32.410Z,12.50
2018-09-29T09:23:21.073Z,12.60
2018-09-29T10:57:57.205Z,14.20
2018-09-29T11:30:59.917Z,14.60
2018-09-29T11:33:32.702Z,14.50
2018-09-29T11:36:05.161Z,14.40
2018-09-29T11:38:36.966Z,14.60
2018-09-29T11:41:06.975Z,14.70
2018-09-29T11:43:36.892Z,14.90
2018-09-29T11:46:11.170Z,15.10
2018-09-29T11:48:40.519Z,15.30
2018-09-29T11:51:09.267Z,15.60
2018-09-29T11:53:39.228Z,15.80
2018-09-29T11:56:08.622Z,16.10
2018-09-29T11:58:38.475Z,17.00
2018-09-29T12:01:09.817Z,18.00
2018-09-29T12:03:38.860Z,19.40
2018-09-29T12:06:08.499Z,20.50
2018-09-29T12:08:38.514Z,20.80
2018-09-29T12:11:07.304Z,21.40
2018-09-29T12:13:36.167Z,21.70
2018-09-29T12:16:05.367Z,22.20
2018-09-29T12:18:33.892Z,22.80
2018-09-29T12:21:02.451Z,23.20
2018-09-29T12:23:32.962Z,23.30
2018-09-29T12:26:01.691Z,23.30
2018-09-29T12:28:30.513Z,23.70
2018-09-29T12:30:59.329Z,23.70
2018-09-29T12:33:28.814Z,23.50
2018-09-29T12:35:59.797Z,23.60
2018-09-29T12:38:28.601Z,24.20
2018-09-29T12:41:06.010Z,24.40
2018-09-29T12:43:41.505Z,25.90
2018-09-29T12:50:10.237Z,25.50
2018-09-29T12:52:40.628Z,25.80
2018-09-29T12:55:11.893Z,25.30
2018-09-29T12:57:45.096Z,25.40
2018-09-29T13:00:15.436Z,25.90
2018-09-29T13:02:45.791Z,26.00
2018-09-29T13:05:20.264Z,25.90
2018-09-29T13:08:07.926Z,25.70
2018-09-29T13:10:38.932Z,26.10
2018-09-29T13:13:09.154Z,26.00
2018-09-29T13:15:51.813Z,25.70
2018-09-29T13:18:30.318Z,25.60
2018-09-29T13:21:07.777Z,26.00
2018-09-29T13:23:39.257Z,26.10
2018-09-29T13:26:13.922Z,26.00
2018-09-29T13:28:46.478Z,26.20
2018-09-29T13:31:18.177Z,25.90
2018-09-29T13:33:54.470Z,26.10
2018-09-29T13:40:03.589Z,27.20
2018-09-29T13:42:33.850Z,27.10
2018-09-29T13:45:03.180Z,26.70
2018-09-29T13:50:26.533Z,26.30
2018-09-29T13:56:57.175Z,27.30
2018-09-29T13:59:28.534Z,27.10
2018-09-29T14:01:59.108Z,27.20
2018-09-29T14:04:33.105Z,27.60
2018-09-29T14:07:08.967Z,27.60
2018-09-29T14:09:41.135Z,27.90
2018-09-29T14:12:12.325Z,27.40
2018-09-29T14:14:43.092Z,27.50
2018-09-29T14:17:13.919Z,27.50
2018-09-29T14:19:43.768Z,27.50
2018-09-29T14:22:13.963Z,26.90
2018-09-29T14:24:44.478Z,26.80
2018-09-29T14:27:19.429Z,27.30
2018-09-29T14:29:56.746Z,27.40
2018-09-29T14:39:13.877Z,25.80
2018-09-29T14:41:56.244Z,25.60
2018-09-29T14:44:27.137Z,25.00
2018-09-29T14:46:59.000Z,25.10
2018-09-29T14:49:45.067Z,25.20
2018-09-29T14:52:26.931Z,25.20
2018-09-29T15:50:58.708Z,25.10
2018-09-29T15:54:00.668Z,16.20
2018-09-29T15:56:48.525Z,16.20
2018-09-29T15:59:18.119Z,16.10
2018-09-29T16:11:58.559Z,15.70
2018-09-29T16:32:57.417Z,15.10
2018-09-29T17:48:05.590Z,13.10
2018-09-29T18:05:03.298Z,12.70
2018-09-29T18:07:48.380Z,12.30
2018-09-29T18:11:31.499Z,12.20
2018-09-29T19:02:21.101Z,11.50
2018-09-29T19:05:24.346Z,11.40
2018-09-29T19:09:14.193Z,11.30
2018-09-29T19:15:23.921Z,11.30
2018-09-29T19:28:55.607Z,11.10
2018-09-29T19:31:40.706Z,11.10
2018-09-29T19:43:28.738Z,10.70
2018-09-29T22:58:14.278Z,10.20
2018-09-29T23:00:46.898Z,9.00
2018-09-29T23:03:19.205Z,9.00
2018-09-29T23:05:52.675Z,9.00
2018-09-29T23:08:21.741Z,9.00
2018-09-29T23:10:51.824Z,9.00
2018-09-29T23:14:34.872Z,9.00
2018-09-29T23:20:21.910Z,9.00
2018-09-29T23:23:10.158Z,9.00
2018-09-29T23:25:52.815Z,9.00
2018-09-29T23:28:27.473Z,8.90
2018-09-29T23:41:17.944Z,8.80
2018-09-29T23:43:56.201Z,8.80
2018-09-29T23:46:29.451Z,8.80
2018-09-29T23:49:13.249Z,8.80
2018-09-29T23:54:25.258Z,8.70
2018-09-29T23:57:00.806Z,8.70
2018-09-29T23:59:35.706Z,8.70
